Bingen, Washington
Current Conditions -  °F | °C
As of 1:39 PM on Monday 22 Dec 2014 (Local Time) from K4S2 Reporting Station
Scattered Clouds Scattered Clouds  
Wind Chill: 52°   Ceiling: Unl
Heat Index: 52°   Visibility: 10mi
Dew Point: 37°   Wind: 5mph
Humidity: 58%   Direction: 270°W
Pressure: 30.32"   Gusts: NA
Location:  45.71°N, 121.46°W
Report Text: K4S2 222139Z AUTO 27004KT 10SM SCT120 11/03 A3032 RMK AO2 SLP284 T01100030
Loading
Personal Weather Stations






























Interactive Weather Map New forecast layout! Learn more

10-Day Weather Forecast

Advertisements
Track Severe Weather on mobile